Port Acres, Texas
Current Conditions -  °F | °C
As of 2:53 AM on Wednesday 22 Oct 2014 (Local Time) from KBPT Reporting Station
Clear Clear  
Wind Chill: 66°   Ceiling: Unl
Heat Index: 66°   Visibility: 9mi
Dew Point: 62°   Wind: 6mph
Humidity: 87%   Direction: 30°NNE
Pressure: 30.03"   Gusts: NA
Location:  29.7569°N, 94.1898°W
Report Text: KBPT 220753Z AUTO 03005KT 9SM CLR 19/17 A3003 RMK AO2 SLP168 T01890167
Loading
Personal Weather Stations






























Interactive Weather Map
Tropical Storm Tracking
New forecast layout! Learn more

10-Day Weather Forecast

Advertisements
Track Severe Weather on mobile